createdAt,value
2023-04-22T00:00:49.616Z,100692.06
2023-04-22T00:03:20.112Z,100698.84
2023-04-22T00:05:50.557Z,100701.69
2023-04-22T00:08:20.834Z,100700.59
2023-04-22T00:10:51.210Z,100701.59
2023-04-22T00:13:21.842Z,100700.03
2023-04-22T00:15:52.522Z,100700.78
2023-04-22T00:18:23.367Z,100709.06
2023-04-22T00:20:53.591Z,100714.66
2023-04-22T00:23:23.870Z,100714.19
2023-04-22T00:25:54.029Z,100717.53
2023-04-22T00:28:24.586Z,100718.16
2023-04-22T00:30:55.123Z,100719.59
2023-04-22T00:33:25.261Z,100718.28
2023-04-22T00:35:56.212Z,100721.84
2023-04-22T00:38:26.644Z,100723.28
2023-04-22T00:40:57.135Z,100727.63
2023-04-22T00:43:27.472Z,100728.63
2023-04-22T00:45:58.846Z,100729.22
2023-04-22T00:48:29.224Z,100727.34
2023-04-22T00:50:59.939Z,100738.19
2023-04-22T00:53:30.044Z,100738.78
2023-04-22T00:56:01.385Z,100736.44
2023-04-22T00:58:32.347Z,100740.22
2023-04-22T01:01:02.581Z,100742.69
2023-04-22T01:03:33.289Z,100736.81
2023-04-22T01:06:03.654Z,100739.06
2023-04-22T01:08:34.368Z,100738.03
2023-04-22T01:11:04.689Z,100730.50
2023-04-22T01:13:34.996Z,100729.47
2023-04-22T01:16:07.556Z,100733.81
2023-04-22T01:18:38.581Z,100737.13
2023-04-22T01:21:08.864Z,100741.72
2023-04-22T01:23:40.004Z,100754.00
2023-04-22T01:26:10.451Z,100751.88
2023-04-22T01:28:40.668Z,100746.25
2023-04-22T01:31:11.427Z,100752.28
2023-04-22T01:33:41.683Z,100749.56
2023-04-22T01:36:13.339Z,100755.34
2023-04-22T01:38:43.549Z,100746.41
2023-04-22T01:41:14.786Z,100747.84
2023-04-22T01:43:46.169Z,100737.00
2023-04-22T01:46:18.365Z,100744.66
2023-04-22T01:48:52.959Z,100706.09
2023-04-22T01:51:28.200Z,100734.44
2023-04-22T01:53:59.785Z,100732.94
2023-04-22T01:56:30.247Z,100738.97
2023-04-22T01:59:00.308Z,100735.56
2023-04-22T02:01:33.881Z,100734.41
2023-04-22T02:04:04.228Z,100726.44
2023-04-22T02:06:34.807Z,100732.81
2023-04-22T02:09:08.325Z,100717.72
2023-04-22T02:11:38.986Z,100720.59
2023-04-22T02:14:09.413Z,100728.03
2023-04-22T02:16:39.635Z,100720.06
2023-04-22T02:19:09.754Z,100726.66
2023-04-22T02:21:39.946Z,100727.88
2023-04-22T02:24:10.130Z,100736.38
2023-04-22T02:26:40.250Z,100736.16
2023-04-22T02:29:10.531Z,100734.84
2023-04-22T02:31:41.355Z,100732.53
2023-04-22T02:34:12.826Z,100727.66
2023-04-22T02:36:43.141Z,100722.63
2023-04-22T02:39:13.849Z,100710.47
2023-04-22T02:41:44.730Z,100702.69
2023-04-22T02:44:15.370Z,100700.34
2023-04-22T02:46:45.676Z,100699.84
2023-04-22T02:49:15.914Z,100704.81
2023-04-22T02:51:46.274Z,100704.38
2023-04-22T02:54:16.901Z,100705.78
2023-04-22T02:56:47.635Z,100700.94
2023-04-22T02:59:18.157Z,100703.19
2023-04-22T03:01:49.353Z,100700.84
2023-04-22T03:04:33.881Z,100698.69
2023-04-22T03:07:04.562Z,100702.84
2023-04-22T03:09:34.787Z,100704.28
2023-04-22T03:12:05.006Z,100688.81
2023-04-22T03:14:35.234Z,100692.47
2023-04-22T03:17:05.640Z,100687.66
2023-04-22T03:19:36.329Z,100685.53
2023-04-22T03:22:06.560Z,100678.78
2023-04-22T03:24:37.208Z,100678.53
2023-04-22T03:27:11.423Z,100678.31
2023-04-22T03:29:42.827Z,100679.13
2023-04-22T03:32:13.375Z,100682.19
2023-04-22T03:34:44.414Z,100677.59
2023-04-22T03:37:15.051Z,100676.53
2023-04-22T03:39:45.220Z,100679.84
2023-04-22T03:42:17.008Z,100679.59
2023-04-22T03:44:48.017Z,100675.59
2023-04-22T03:47:21.140Z,100664.50
2023-04-22T03:49:57.700Z,100666.53
2023-04-22T03:52:28.260Z,100664.84
2023-04-22T03:55:04.528Z,100662.03
2023-04-22T03:57:37.253Z,100663.69
2023-04-22T04:00:08.048Z,100662.25
2023-04-22T04:02:44.340Z,100658.13
2023-04-22T04:05:19.474Z,100663.56
2023-04-22T04:07:50.695Z,100659.31
2023-04-22T04:10:21.051Z,100656.63
2023-04-22T04:12:52.110Z,100660.00
2023-04-22T04:15:24.705Z,100653.16
2023-04-22T04:17:57.620Z,100655.50
2023-04-22T04:20:29.576Z,100645.34
2023-04-22T04:22:59.781Z,100634.59
2023-04-22T04:25:32.470Z,100634.69
2023-04-22T04:28:06.687Z,100631.03
2023-04-22T04:30:38.085Z,100626.75
2023-04-22T04:33:09.404Z,100625.22
2023-04-22T04:35:41.355Z,100622.03
2023-04-22T04:38:14.263Z,100618.22
2023-04-22T04:40:45.078Z,100624.97
2023-04-22T04:43:20.069Z,100613.00
2023-04-22T04:45:55.473Z,100618.34
2023-04-22T04:48:37.623Z,100610.31
2023-04-22T04:51:11.743Z,100604.75
2023-04-22T04:53:51.841Z,100599.56
2023-04-22T04:56:22.936Z,100589.53
2023-04-22T04:58:53.360Z,100584.44
2023-04-22T05:01:29.912Z,100578.28
2023-04-22T05:04:06.413Z,100577.56
2023-04-22T05:06:37.095Z,100572.59
2023-04-22T05:09:09.333Z,100564.59
2023-04-22T05:11:39.984Z,100560.34
2023-04-22T05:14:16.915Z,100552.81
2023-04-22T05:16:49.084Z,100548.78
2023-04-22T05:19:19.324Z,100550.69
2023-04-22T05:21:50.844Z,100543.84
2023-04-22T05:24:22.826Z,100535.22
2023-04-22T05:26:53.881Z,100523.56
2023-04-22T05:29:24.402Z,100522.13
2023-04-22T05:31:55.071Z,100511.88
2023-04-22T05:34:26.150Z,100514.84
2023-04-22T05:36:57.788Z,100510.47
2023-04-22T05:39:29.002Z,100502.34
2023-04-22T05:42:02.261Z,100491.00
2023-04-22T05:44:33.873Z,100491.38
2023-04-22T05:47:04.953Z,100492.22
2023-04-22T05:49:35.245Z,100480.28
2023-04-22T05:52:11.150Z,100477.09
2023-04-22T05:55:03.782Z,100469.34
2023-04-22T05:57:34.089Z,100468.13
2023-04-22T06:00:11.155Z,100468.72
2023-04-22T06:02:47.571Z,100465.31
2023-04-22T06:05:18.548Z,100462.03
2023-04-22T06:07:49.094Z,100444.09
2023-04-22T06:10:19.366Z,100448.22
2023-04-22T06:12:49.711Z,100440.69
2023-04-22T06:15:20.027Z,100442.09
2023-04-22T06:17:51.484Z,100441.03
2023-04-22T06:20:21.762Z,100438.91
2023-04-22T06:22:52.440Z,100435.97
2023-04-22T06:25:22.786Z,100431.91
2023-04-22T06:27:53.109Z,100428.75
2023-04-22T06:30:25.341Z,100421.19
2023-04-22T06:32:56.607Z,100411.50
2023-04-22T06:35:27.857Z,100408.31
2023-04-22T06:37:58.803Z,100406.91
2023-04-22T06:40:33.758Z,100405.72
2023-04-22T06:43:14.798Z,100403.56
2023-04-22T06:46:04.733Z,100392.25
2023-04-22T06:49:03.691Z,100388.78
2023-04-22T06:51:34.194Z,100386.88
2023-04-22T06:54:05.209Z,100384.28
2023-04-22T06:56:35.402Z,100389.69
2023-04-22T06:59:05.603Z,100351.44
2023-04-22T07:01:36.140Z,100380.72
2023-04-22T07:04:06.868Z,100367.72
2023-04-22T07:06:38.035Z,100372.66
2023-04-22T07:09:09.918Z,100360.50
2023-04-22T07:11:41.266Z,100352.13
2023-04-22T07:14:20.170Z,100352.94
2023-04-22T07:16:50.603Z,100343.53
2023-04-22T07:19:21.107Z,100348.97
2023-04-22T07:21:51.301Z,100338.22
2023-04-22T07:24:21.454Z,100338.88
2023-04-22T07:26:51.827Z,100333.69
2023-04-22T07:29:22.440Z,100331.81
2023-04-22T07:31:53.089Z,100331.31
2023-04-22T07:34:23.726Z,100324.00
2023-04-22T07:36:54.947Z,100323.50
2023-04-22T07:39:25.174Z,100324.06
2023-04-22T07:41:55.438Z,100319.19
2023-04-22T07:44:25.604Z,100299.69
2023-04-22T07:46:55.820Z,100299.94
2023-04-22T07:49:26.155Z,100292.38
2023-04-22T07:51:56.401Z,100293.50
2023-04-22T07:54:26.651Z,100285.47
2023-04-22T07:56:56.728Z,100291.72
2023-04-22T07:59:27.136Z,100281.16
2023-04-22T08:01:57.333Z,100280.34
2023-04-22T08:04:28.529Z,100280.63
2023-04-22T08:06:59.070Z,100284.97
2023-04-22T08:09:31.198Z,100288.25
2023-04-22T08:12:01.448Z,100275.72
2023-04-22T08:14:31.619Z,100270.28
2023-04-22T08:17:01.837Z,100273.59
2023-04-22T08:19:35.101Z,100267.16
2023-04-22T08:22:05.442Z,100262.31
2023-04-22T08:24:35.570Z,100263.13
2023-04-22T08:27:06.334Z,100265.28
2023-04-22T08:29:36.796Z,100265.53
2023-04-22T08:32:07.017Z,100263.88
2023-04-22T08:34:38.973Z,100268.00
2023-04-22T08:37:09.924Z,100263.69
2023-04-22T08:39:40.903Z,100272.66
2023-04-22T08:42:11.605Z,100256.94
2023-04-22T08:44:42.896Z,100255.31
2023-04-22T08:47:15.108Z,100242.25
2023-04-22T08:49:45.542Z,100246.56
2023-04-22T08:52:16.891Z,100246.00
2023-04-22T08:54:47.500Z,100237.84
2023-04-22T08:57:17.954Z,100242.78
2023-04-22T08:59:48.368Z,100243.28
2023-04-22T09:02:26.020Z,100230.25
2023-04-22T09:04:56.398Z,100235.13
2023-04-22T09:07:28.677Z,100225.88
2023-04-22T09:09:59.766Z,100227.25
2023-04-22T09:12:30.413Z,100230.78
2023-04-22T09:15:00.841Z,100224.19
2023-04-22T09:17:35.085Z,100214.13
2023-04-22T09:20:06.118Z,100211.31
2023-04-22T09:22:44.564Z,100211.56
2023-04-22T09:25:18.474Z,100209.09
2023-04-22T09:27:55.579Z,100210.91
2023-04-22T09:30:29.656Z,100210.78
2023-04-22T09:33:01.516Z,100208.50
2023-04-22T09:35:33.390Z,100226.84
2023-04-22T09:38:05.313Z,100227.19
2023-04-22T09:40:36.440Z,100233.78
2023-04-22T09:43:09.642Z,100233.31
2023-04-22T09:45:43.771Z,100232.53
2023-04-22T09:48:19.043Z,100239.44
2023-04-22T09:50:50.937Z,100232.13
2023-04-22T09:53:22.059Z,100235.56
2023-04-22T09:55:53.372Z,100238.69
2023-04-22T09:58:28.722Z,100247.41
2023-04-22T10:01:00.658Z,100250.81
2023-04-22T10:03:30.809Z,100253.38
2023-04-22T10:06:01.766Z,100256.44
2023-04-22T10:08:32.111Z,100256.78
2023-04-22T10:11:02.807Z,100256.81
2023-04-22T10:13:33.000Z,100259.81
2023-04-22T10:16:03.545Z,100261.78
2023-04-22T10:18:34.363Z,100263.16
2023-04-22T10:21:04.662Z,100275.41
2023-04-22T10:23:35.500Z,100276.25
2023-04-22T10:26:07.025Z,100281.19
2023-04-22T10:28:37.279Z,100292.66
2023-04-22T10:31:22.276Z,100302.72
2023-04-22T10:33:52.590Z,100304.63
2023-04-22T10:36:22.895Z,100309.56
2023-04-22T10:38:53.028Z,100312.28
2023-04-22T10:41:27.410Z,100317.75
2023-04-22T10:44:15.371Z,100306.84
2023-04-22T10:46:54.478Z,100311.22
2023-04-22T10:49:25.381Z,100320.47
2023-04-22T10:52:02.763Z,100324.28
2023-04-22T10:54:38.601Z,100332.47
2023-04-22T10:57:20.626Z,100328.91
2023-04-22T10:59:51.745Z,100255.53
2023-04-22T11:02:24.188Z,100322.59
2023-04-22T11:05:14.680Z,100336.47
2023-04-22T11:07:45.240Z,100336.22
2023-04-22T11:10:31.886Z,100343.81
2023-04-22T11:13:04.336Z,100334.50
2023-04-22T11:15:36.811Z,100336.16
2023-04-22T11:18:15.951Z,100334.50
2023-04-22T11:20:46.644Z,100320.34
2023-04-22T11:23:25.225Z,100325.78
2023-04-22T11:26:00.318Z,100327.94
2023-04-22T11:28:30.745Z,100331.78
2023-04-22T11:31:07.075Z,100334.50
2023-04-22T11:33:38.615Z,100346.47
2023-04-22T11:36:17.838Z,100350.28
2023-04-22T11:39:10.426Z,100354.91
2023-04-22T11:41:42.551Z,100351.84
2023-04-22T11:44:15.597Z,100367.94
2023-04-22T11:46:46.340Z,100370.44
2023-04-22T11:49:17.290Z,100370.69
2023-04-22T11:51:54.652Z,100370.84
2023-04-22T11:54:51.650Z,100372.97
2023-04-22T11:57:23.296Z,100385.09
2023-04-22T12:00:02.929Z,100388.53
2023-04-22T12:02:34.366Z,100393.22
2023-04-22T12:05:05.310Z,100399.22
2023-04-22T12:07:35.558Z,100402.34
2023-04-22T12:10:09.366Z,100408.06
2023-04-22T12:12:42.115Z,100406.88
2023-04-22T12:15:13.857Z,100408.81
2023-04-22T12:17:46.827Z,100411.91
2023-04-22T12:20:17.650Z,100415.00
2023-04-22T12:22:47.781Z,100422.94
2023-04-22T12:25:20.711Z,100419.06
2023-04-22T12:27:50.837Z,100422.97
2023-04-22T12:30:21.849Z,100426.91
2023-04-22T12:32:52.398Z,100443.06
2023-04-22T12:35:22.991Z,100443.38
2023-04-22T12:37:53.817Z,100447.63
2023-04-22T12:40:24.906Z,100433.38
2023-04-22T12:42:55.305Z,100442.09
2023-04-22T12:45:26.309Z,100460.13
2023-04-22T12:47:56.782Z,100471.44
2023-04-22T12:50:27.204Z,100462.72
2023-04-22T12:52:57.476Z,100453.63
2023-04-22T12:55:27.838Z,100445.75
2023-04-22T12:57:58.345Z,100449.97
2023-04-22T13:00:28.895Z,100457.53
2023-04-22T13:02:59.135Z,100454.22
2023-04-22T13:05:29.346Z,100465.06
2023-04-22T13:08:06.638Z,100464.47
2023-04-22T13:10:38.283Z,100471.41
2023-04-22T13:13:18.339Z,100481.03
2023-04-22T13:15:54.831Z,100489.28
2023-04-22T13:18:25.242Z,100498.03
2023-04-22T13:20:58.200Z,100515.09
2023-04-22T13:23:29.095Z,100517.00
2023-04-22T13:26:02.313Z,100535.53
2023-04-22T13:28:32.881Z,100538.25
2023-04-22T13:31:03.445Z,100544.69
2023-04-22T13:33:33.864Z,100547.19
2023-04-22T13:36:04.461Z,100556.75
2023-04-22T13:38:34.868Z,100554.25
2023-04-22T13:41:05.805Z,100556.97
2023-04-22T13:43:36.429Z,100576.78
2023-04-22T13:46:07.289Z,100580.53
2023-04-22T13:48:38.002Z,100584.75
2023-04-22T13:51:08.171Z,100601.47
2023-04-22T13:53:38.539Z,100600.88
2023-04-22T13:56:09.622Z,100606.16
2023-04-22T13:58:41.453Z,100605.78
2023-04-22T14:01:11.929Z,100612.34
2023-04-22T14:03:42.388Z,100611.75
2023-04-22T14:06:12.688Z,100626.06
2023-04-22T14:08:43.424Z,100627.56
2023-04-22T14:11:13.886Z,100625.31
2023-04-22T14:13:44.395Z,100618.69
2023-04-22T14:16:14.954Z,100626.22
2023-04-22T14:18:47.149Z,100620.66
2023-04-22T14:21:17.354Z,100621.09
2023-04-22T14:23:47.584Z,100619.25
2023-04-22T14:26:17.906Z,100633.25
2023-04-22T14:28:48.100Z,100637.03
2023-04-22T14:31:18.397Z,100643.09
2023-04-22T14:33:48.622Z,100650.59
2023-04-22T14:36:19.999Z,100648.16
2023-04-22T14:38:50.286Z,100657.34
2023-04-22T14:41:20.386Z,100656.94
2023-04-22T14:43:51.790Z,100654.91
2023-04-22T14:46:22.130Z,100653.84
2023-04-22T14:48:52.416Z,100651.59
2023-04-22T14:51:22.585Z,100660.78
2023-04-22T14:53:53.027Z,100661.19
2023-04-22T14:56:23.150Z,100658.34
2023-04-22T14:58:53.405Z,100658.34
2023-04-22T15:01:24.411Z,100671.25
2023-04-22T15:03:55.969Z,100676.88
2023-04-22T15:06:26.698Z,100683.38
2023-04-22T15:08:57.310Z,100682.97
2023-04-22T15:11:27.677Z,100687.41
2023-04-22T15:13:57.919Z,100685.72
2023-04-22T15:16:28.186Z,100694.28
2023-04-22T15:18:58.523Z,100680.97
2023-04-22T15:21:28.727Z,100695.53
2023-04-22T15:23:58.909Z,100690.19
2023-04-22T15:26:29.343Z,100691.81
2023-04-22T15:28:59.518Z,100698.50
2023-04-22T15:31:29.800Z,100703.31
2023-04-22T15:33:59.980Z,100709.75
2023-04-22T15:36:31.111Z,100709.31
2023-04-22T15:39:01.767Z,100706.03
2023-04-22T15:41:32.164Z,100712.25
2023-04-22T15:44:02.841Z,100711.84
2023-04-22T15:46:34.642Z,100706.88
2023-04-22T15:49:05.623Z,100715.44
2023-04-22T15:51:35.910Z,100711.06
2023-04-22T15:54:06.026Z,100723.97
2023-04-22T15:56:36.970Z,100730.19
2023-04-22T15:59:07.097Z,100723.03
2023-04-22T16:01:40.314Z,100726.75
2023-04-22T16:04:11.108Z,100730.91
2023-04-22T16:06:42.178Z,100728.81
2023-04-22T16:09:12.435Z,100733.41
2023-04-22T16:11:43.594Z,100730.47
2023-04-22T16:14:14.002Z,100734.66
2023-04-22T16:16:45.127Z,100733.00
2023-04-22T16:19:15.387Z,100706.88
2023-04-22T16:21:45.576Z,100734.47
2023-04-22T16:24:17.010Z,100738.22
2023-04-22T16:26:47.122Z,100733.22
2023-04-22T16:29:17.748Z,100719.69
2023-04-22T16:31:48.061Z,100722.63
2023-04-22T16:34:18.353Z,100731.19
2023-04-22T16:36:48.638Z,100729.75
2023-04-22T16:39:20.475Z,100731.84
2023-04-22T16:41:50.709Z,100724.78
2023-04-22T16:44:20.948Z,100724.53
2023-04-22T16:46:51.545Z,100710.44
2023-04-22T16:49:21.945Z,100704.63
2023-04-22T16:51:52.442Z,100707.31
2023-04-22T16:54:23.039Z,100717.53
2023-04-22T16:56:53.188Z,100709.84
2023-04-22T16:59:23.874Z,100710.69
2023-04-22T17:01:54.600Z,100709.84
2023-04-22T17:04:25.336Z,100710.28
2023-04-22T17:06:55.891Z,100708.63
2023-04-22T17:09:25.986Z,100711.53
2023-04-22T17:11:56.101Z,100714.47
2023-04-22T17:14:26.542Z,100702.44
2023-04-22T17:16:56.644Z,100694.56
2023-04-22T17:19:27.108Z,100689.97
2023-04-22T17:21:57.371Z,100688.75
2023-04-22T17:24:27.503Z,100688.75
2023-04-22T17:26:57.683Z,100687.06
2023-04-22T17:29:28.034Z,100687.06
2023-04-22T17:31:58.498Z,100683.75
2023-04-22T17:34:28.992Z,100679.63
2023-04-22T17:36:59.368Z,100667.16
2023-04-22T17:39:29.442Z,100669.66
2023-04-22T17:42:00.086Z,100662.56
2023-04-22T17:44:30.289Z,100665.72
2023-04-22T17:47:00.630Z,100669.47
2023-04-22T17:49:30.898Z,100665.13
2023-04-22T17:52:01.059Z,100672.16
2023-04-22T17:54:31.569Z,100658.03
2023-04-22T17:57:01.793Z,100665.53
2023-04-22T17:59:32.112Z,100660.97
2023-04-22T18:02:02.928Z,100662.19
2023-04-22T18:04:33.357Z,100656.19
2023-04-22T18:07:03.437Z,100650.78
2023-04-22T18:09:34.124Z,100665.09
2023-04-22T18:12:04.642Z,100665.53
2023-04-22T18:14:34.852Z,100672.22
2023-04-22T18:17:05.085Z,100666.81
2023-04-22T18:19:35.287Z,100661.84
2023-04-22T18:22:05.436Z,100661.00
2023-04-22T18:24:35.595Z,100653.94
2023-04-22T18:27:06.141Z,100655.81
2023-04-22T18:29:37.149Z,100658.94
2023-04-22T18:32:07.924Z,100660.00
2023-04-22T18:34:38.399Z,100650.22
2023-04-22T18:37:08.779Z,100659.38
2023-04-22T18:39:39.556Z,100649.00
2023-04-22T18:42:10.148Z,100645.69
2023-04-22T18:44:40.976Z,100645.69
2023-04-22T18:47:11.442Z,100637.00
2023-04-22T18:49:41.460Z,100638.00
2023-04-22T18:52:12.040Z,100638.25
2023-04-22T18:54:42.508Z,100639.50
2023-04-22T18:57:13.020Z,100631.41
2023-04-22T18:59:43.944Z,100639.94
2023-04-22T19:02:15.189Z,100633.25
2023-04-22T19:04:45.396Z,100629.13
2023-04-22T19:07:15.670Z,100633.47
2023-04-22T19:09:45.775Z,100632.84
2023-04-22T19:12:18.102Z,100624.13
2023-04-22T19:14:50.994Z,100626.25
2023-04-22T19:17:21.069Z,100622.91
2023-04-22T19:19:51.241Z,100629.97
2023-04-22T19:22:21.969Z,100628.94
2023-04-22T19:24:52.672Z,100625.00
2023-04-22T19:27:22.785Z,100625.00
2023-04-22T19:29:54.779Z,100623.34
2023-04-22T19:32:24.898Z,100614.63
2023-04-22T19:34:55.005Z,100611.31
2023-04-22T19:37:25.185Z,100615.06
2023-04-22T19:39:55.287Z,100618.00
2023-04-22T19:42:25.437Z,100609.25
2023-04-22T19:44:56.164Z,100611.72
2023-04-22T19:47:26.346Z,100603.25
2023-04-22T19:49:56.578Z,100606.75
2023-04-22T19:52:26.792Z,100605.13
2023-04-22T19:55:02.395Z,100603.44
2023-04-22T19:57:32.820Z,100600.16
2023-04-22T20:00:03.537Z,100604.50
2023-04-22T20:02:42.373Z,100607.59
2023-04-22T20:05:13.513Z,100613.44
2023-04-22T20:07:45.197Z,100617.19
2023-04-22T20:10:15.594Z,100612.59
2023-04-22T20:12:46.788Z,100624.22
2023-04-22T20:15:17.138Z,100613.88
2023-04-22T20:17:47.558Z,100624.66
2023-04-22T20:20:18.940Z,100613.88
2023-04-22T20:22:50.521Z,100614.28
2023-04-22T20:25:21.008Z,100613.66
2023-04-22T20:27:51.092Z,100627.16
2023-04-22T20:30:22.174Z,100619.25
2023-04-22T20:32:52.993Z,100618.06
2023-04-22T20:35:23.244Z,100596.09
2023-04-22T20:37:55.589Z,100635.31
2023-04-22T20:40:26.596Z,100635.50
2023-04-22T20:42:58.561Z,100638.81
2023-04-22T20:45:28.748Z,100640.47
2023-04-22T20:47:59.808Z,100641.13
2023-04-22T20:50:34.796Z,100644.41
2023-04-22T20:53:05.276Z,100644.66
2023-04-22T20:55:37.166Z,100650.06
2023-04-22T20:58:08.598Z,100651.06
2023-04-22T21:00:38.834Z,100647.53
2023-04-22T21:03:12.919Z,100643.41
2023-04-22T21:05:46.698Z,100645.06
2023-04-22T21:08:26.969Z,100649.84
2023-04-22T21:10:57.949Z,100653.56
2023-04-22T21:13:28.881Z,100655.44
2023-04-22T21:16:06.189Z,100654.63
2023-04-22T21:18:37.056Z,100657.56
2023-04-22T21:21:08.448Z,100652.97
2023-04-22T21:23:39.169Z,100663.78
2023-04-22T21:26:10.222Z,100665.03
2023-04-22T21:28:40.860Z,100671.25
2023-04-22T21:31:11.116Z,100681.22
2023-04-22T21:33:41.266Z,100666.03
2023-04-22T21:36:12.718Z,100661.91
2023-04-22T21:38:43.140Z,100670.63
2023-04-22T21:41:13.785Z,100667.31
2023-04-22T21:43:43.846Z,100677.06
2023-04-22T21:46:13.928Z,100682.88
2023-04-22T21:48:44.190Z,100682.25
2023-04-22T21:51:14.893Z,100684.75
2023-04-22T21:53:46.036Z,100682.06
2023-04-22T21:56:16.470Z,100678.72
2023-04-22T21:58:46.849Z,100686.19
2023-04-22T22:01:17.199Z,100686.44
2023-04-22T22:03:48.087Z,100694.31
2023-04-22T22:06:18.620Z,100690.78
2023-04-22T22:08:48.992Z,100694.53
2023-04-22T22:11:30.354Z,100700.94
2023-04-22T22:14:01.285Z,100703.66
2023-04-22T22:16:32.347Z,100712.38
2023-04-22T22:19:03.940Z,100724.19
2023-04-22T22:21:34.343Z,100725.22
2023-04-22T22:24:04.570Z,100732.66
2023-04-22T22:26:37.708Z,100727.66
2023-04-22T22:29:07.917Z,100719.34
2023-04-22T22:31:38.130Z,100728.66
2023-04-22T22:34:08.225Z,100729.25
2023-04-22T22:36:38.902Z,100729.00
2023-04-22T22:39:11.669Z,100727.13
2023-04-22T22:41:43.692Z,100729.59
2023-04-22T22:44:14.199Z,100729.56
2023-04-22T22:46:44.434Z,100726.84
2023-04-22T22:49:15.311Z,100729.72
2023-04-22T22:51:45.452Z,100738.25
2023-04-22T22:54:15.665Z,100735.72
2023-04-22T22:56:45.823Z,100736.94
2023-04-22T22:59:16.109Z,100749.19
2023-04-22T23:01:46.628Z,100748.88
2023-04-22T23:04:17.548Z,100743.97
2023-04-22T23:06:48.670Z,100773.81
2023-04-22T23:09:20.425Z,100772.97
2023-04-22T23:11:53.187Z,100780.06
2023-04-22T23:14:24.061Z,100780.44
2023-04-22T23:16:54.519Z,100784.81
2023-04-22T23:19:25.100Z,100793.75
2023-04-22T23:21:56.957Z,100796.44
2023-04-22T23:24:27.465Z,100799.16
2023-04-22T23:26:58.722Z,100807.91
2023-04-22T23:29:29.017Z,100821.56
2023-04-22T23:32:01.775Z,100819.50
2023-04-22T23:34:33.306Z,100828.84
2023-04-22T23:37:09.726Z,100824.03
2023-04-22T23:39:40.708Z,100836.09
2023-04-22T23:42:10.846Z,100811.19
2023-04-22T23:44:41.534Z,100841.44
2023-04-22T23:47:12.206Z,100847.69
2023-04-22T23:49:43.098Z,100852.66
2023-04-22T23:52:14.214Z,100859.50
2023-04-22T23:54:46.451Z,100866.38
2023-04-22T23:57:17.530Z,100866.78
2023-04-22T23:59:47.970Z,100848.13
